sensor_id;sensor_type;location;lat;lon;timestamp;P1;durP1;ratioP1;P2;durP2;ratioP2
43337;SDS011;28933;52.492;13.434;2023-04-30T00:01:52;4.88;;;2.55;;
43337;SDS011;28933;52.492;13.434;2023-04-30T00:04:18;5.82;;;3.13;;
43337;SDS011;28933;52.492;13.434;2023-04-30T00:06:43;5.55;;;3.22;;
43337;SDS011;28933;52.492;13.434;2023-04-30T00:09:09;5.82;;;2.30;;
43337;SDS011;28933;52.492;13.434;2023-04-30T00:11:35;5.03;;;2.65;;
43337;SDS011;28933;52.492;13.434;2023-04-30T00:14:00;5.53;;;2.42;;
43337;SDS011;28933;52.492;13.434;2023-04-30T00:16:26;5.47;;;2.20;;
43337;SDS011;28933;52.492;13.434;2023-04-30T00:18:51;3.97;;;1.98;;
43337;SDS011;28933;52.492;13.434;2023-04-30T00:21:17;3.70;;;1.95;;
43337;SDS011;28933;52.492;13.434;2023-04-30T00:23:42;4.00;;;2.00;;
43337;SDS011;28933;52.492;13.434;2023-04-30T00:26:08;5.20;;;2.28;;
43337;SDS011;28933;52.492;13.434;2023-04-30T00:28:34;4.70;;;2.35;;
43337;SDS011;28933;52.492;13.434;2023-04-30T00:31:00;8.52;;;2.47;;
43337;SDS011;28933;52.492;13.434;2023-04-30T00:33:26;4.05;;;2.08;;
43337;SDS011;28933;52.492;13.434;2023-04-30T00:35:52;5.00;;;2.33;;
43337;SDS011;28933;52.492;13.434;2023-04-30T00:38:17;3.97;;;2.10;;
43337;SDS011;28933;52.492;13.434;2023-04-30T00:40:43;5.57;;;2.38;;
43337;SDS011;28933;52.492;13.434;2023-04-30T00:43:10;8.95;;;2.42;;
43337;SDS011;28933;52.492;13.434;2023-04-30T00:45:35;3.25;;;1.77;;
43337;SDS011;28933;52.492;13.434;2023-04-30T00:48:01;5.47;;;2.28;;
43337;SDS011;28933;52.492;13.434;2023-04-30T00:50:27;3.42;;;1.83;;
43337;SDS011;28933;52.492;13.434;2023-04-30T00:52:53;5.68;;;2.88;;
43337;SDS011;28933;52.492;13.434;2023-04-30T00:55:20;6.35;;;2.28;;
43337;SDS011;28933;52.492;13.434;2023-04-30T00:57:45;4.28;;;2.40;;
43337;SDS011;28933;52.492;13.434;2023-04-30T01:00:11;7.18;;;3.03;;
43337;SDS011;28933;52.492;13.434;2023-04-30T01:02:38;6.50;;;2.80;;
43337;SDS011;28933;52.492;13.434;2023-04-30T01:05:04;7.28;;;3.53;;
43337;SDS011;28933;52.492;13.434;2023-04-30T01:07:31;6.47;;;2.55;;
43337;SDS011;28933;52.492;13.434;2023-04-30T01:09:58;5.47;;;2.83;;
43337;SDS011;28933;52.492;13.434;2023-04-30T01:17:45;5.43;;;2.05;;
43337;SDS011;28933;52.492;13.434;2023-04-30T01:20:18;4.78;;;2.03;;
43337;SDS011;28933;52.492;13.434;2023-04-30T01:22:54;9.52;;;2.42;;
43337;SDS011;28933;52.492;13.434;2023-04-30T01:28:30;4.13;;;2.10;;
43337;SDS011;28933;52.492;13.434;2023-04-30T01:30:58;6.60;;;3.05;;
43337;SDS011;28933;52.492;13.434;2023-04-30T01:33:24;5.68;;;2.83;;
43337;SDS011;28933;52.492;13.434;2023-04-30T01:38:42;6.53;;;2.30;;
43337;SDS011;28933;52.492;13.434;2023-04-30T01:41:34;9.93;;;2.53;;
43337;SDS011;28933;52.492;13.434;2023-04-30T01:50:04;5.82;;;2.70;;
43337;SDS011;28933;52.492;13.434;2023-04-30T01:52:38;5.70;;;2.67;;
43337;SDS011;28933;52.492;13.434;2023-04-30T01:55:19;7.45;;;3.10;;
43337;SDS011;28933;52.492;13.434;2023-04-30T01:57:58;8.00;;;2.85;;
43337;SDS011;28933;52.492;13.434;2023-04-30T02:00:25;10.60;;;2.90;;
43337;SDS011;28933;52.492;13.434;2023-04-30T02:02:52;5.40;;;2.63;;
43337;SDS011;28933;52.492;13.434;2023-04-30T02:05:17;8.20;;;2.97;;
43337;SDS011;28933;52.492;13.434;2023-04-30T02:07:45;4.90;;;2.83;;
43337;SDS011;28933;52.492;13.434;2023-04-30T02:10:13;6.47;;;2.58;;
43337;SDS011;28933;52.492;13.434;2023-04-30T02:12:41;8.55;;;2.80;;
43337;SDS011;28933;52.492;13.434;2023-04-30T02:15:06;6.50;;;2.75;;
43337;SDS011;28933;52.492;13.434;2023-04-30T02:17:33;8.93;;;3.10;;
43337;SDS011;28933;52.492;13.434;2023-04-30T02:19:59;6.30;;;2.67;;
43337;SDS011;28933;52.492;13.434;2023-04-30T02:22:25;9.40;;;2.75;;
43337;SDS011;28933;52.492;13.434;2023-04-30T02:24:50;8.93;;;2.83;;
43337;SDS011;28933;52.492;13.434;2023-04-30T02:27:19;6.47;;;3.10;;
43337;SDS011;28933;52.492;13.434;2023-04-30T02:29:46;5.82;;;3.17;;
43337;SDS011;28933;52.492;13.434;2023-04-30T02:32:12;6.18;;;2.60;;
43337;SDS011;28933;52.492;13.434;2023-04-30T02:34:38;10.90;;;3.92;;
43337;SDS011;28933;52.492;13.434;2023-04-30T02:37:04;10.05;;;3.30;;
43337;SDS011;28933;52.492;13.434;2023-04-30T02:39:30;4.88;;;3.05;;
43337;SDS011;28933;52.492;13.434;2023-04-30T02:41:56;6.70;;;3.10;;
43337;SDS011;28933;52.492;13.434;2023-04-30T02:44:22;5.78;;;2.85;;
43337;SDS011;28933;52.492;13.434;2023-04-30T02:46:48;7.35;;;2.92;;
43337;SDS011;28933;52.492;13.434;2023-04-30T02:49:14;7.10;;;2.92;;
43337;SDS011;28933;52.492;13.434;2023-04-30T02:51:39;7.18;;;3.33;;
43337;SDS011;28933;52.492;13.434;2023-04-30T02:54:05;7.90;;;2.42;;
43337;SDS011;28933;52.492;13.434;2023-04-30T02:56:31;8.25;;;3.75;;
43337;SDS011;28933;52.492;13.434;2023-04-30T02:58:56;6.95;;;3.03;;
43337;SDS011;28933;52.492;13.434;2023-04-30T03:01:22;9.00;;;3.17;;
43337;SDS011;28933;52.492;13.434;2023-04-30T03:03:47;11.77;;;3.25;;
43337;SDS011;28933;52.492;13.434;2023-04-30T03:06:13;5.95;;;2.83;;
43337;SDS011;28933;52.492;13.434;2023-04-30T03:08:39;5.47;;;2.78;;
43337;SDS011;28933;52.492;13.434;2023-04-30T03:11:04;5.07;;;2.75;;
43337;SDS011;28933;52.492;13.434;2023-04-30T03:13:30;5.03;;;1.95;;
43337;SDS011;28933;52.492;13.434;2023-04-30T03:15:59;5.57;;;3.17;;
43337;SDS011;28933;52.492;13.434;2023-04-30T03:18:27;7.70;;;2.97;;
43337;SDS011;28933;52.492;13.434;2023-04-30T03:20:53;5.80;;;2.30;;
43337;SDS011;28933;52.492;13.434;2023-04-30T03:23:18;4.70;;;2.13;;
43337;SDS011;28933;52.492;13.434;2023-04-30T03:25:44;7.90;;;2.88;;
43337;SDS011;28933;52.492;13.434;2023-04-30T03:28:10;9.93;;;3.03;;
43337;SDS011;28933;52.492;13.434;2023-04-30T03:30:35;7.53;;;2.90;;
43337;SDS011;28933;52.492;13.434;2023-04-30T03:33:01;6.32;;;2.83;;
43337;SDS011;28933;52.492;13.434;2023-04-30T03:35:27;6.35;;;2.80;;
43337;SDS011;28933;52.492;13.434;2023-04-30T03:37:52;8.02;;;2.83;;
43337;SDS011;28933;52.492;13.434;2023-04-30T03:40:18;4.60;;;2.67;;
43337;SDS011;28933;52.492;13.434;2023-04-30T03:42:43;5.82;;;3.28;;
43337;SDS011;28933;52.492;13.434;2023-04-30T03:45:09;11.43;;;3.95;;
43337;SDS011;28933;52.492;13.434;2023-04-30T03:47:35;6.32;;;2.42;;
43337;SDS011;28933;52.492;13.434;2023-04-30T03:50:01;5.85;;;3.25;;
43337;SDS011;28933;52.492;13.434;2023-04-30T03:52:28;9.68;;;3.03;;
43337;SDS011;28933;52.492;13.434;2023-04-30T03:54:55;5.35;;;2.88;;
43337;SDS011;28933;52.492;13.434;2023-04-30T03:57:21;5.10;;;2.70;;
43337;SDS011;28933;52.492;13.434;2023-04-30T03:59:46;4.95;;;2.92;;
43337;SDS011;28933;52.492;13.434;2023-04-30T04:02:13;5.93;;;3.00;;
43337;SDS011;28933;52.492;13.434;2023-04-30T04:04:39;9.38;;;3.55;;
43337;SDS011;28933;52.492;13.434;2023-04-30T04:07:05;8.57;;;3.40;;
43337;SDS011;28933;52.492;13.434;2023-04-30T04:09:32;6.10;;;3.72;;
43337;SDS011;28933;52.492;13.434;2023-04-30T04:11:57;8.02;;;3.40;;
43337;SDS011;28933;52.492;13.434;2023-04-30T04:14:23;5.60;;;3.15;;
43337;SDS011;28933;52.492;13.434;2023-04-30T04:16:48;6.78;;;3.25;;
43337;SDS011;28933;52.492;13.434;2023-04-30T04:19:14;4.70;;;2.95;;
43337;SDS011;28933;52.492;13.434;2023-04-30T04:21:39;5.38;;;2.83;;
43337;SDS011;28933;52.492;13.434;2023-04-30T04:24:05;4.80;;;2.67;;
43337;SDS011;28933;52.492;13.434;2023-04-30T04:26:35;5.93;;;2.92;;
43337;SDS011;28933;52.492;13.434;2023-04-30T04:29:02;7.55;;;3.15;;
43337;SDS011;28933;52.492;13.434;2023-04-30T04:31:29;8.88;;;3.13;;
43337;SDS011;28933;52.492;13.434;2023-04-30T04:33:56;5.10;;;3.03;;
43337;SDS011;28933;52.492;13.434;2023-04-30T04:36:25;7.03;;;3.85;;
43337;SDS011;28933;52.492;13.434;2023-04-30T04:38:52;8.50;;;2.72;;
43337;SDS011;28933;52.492;13.434;2023-04-30T04:41:19;6.05;;;3.42;;
43337;SDS011;28933;52.492;13.434;2023-04-30T04:43:45;6.38;;;3.13;;
43337;SDS011;28933;52.492;13.434;2023-04-30T04:46:11;6.30;;;3.25;;
43337;SDS011;28933;52.492;13.434;2023-04-30T04:48:40;8.75;;;3.72;;
43337;SDS011;28933;52.492;13.434;2023-04-30T04:51:06;5.60;;;3.10;;
43337;SDS011;28933;52.492;13.434;2023-04-30T04:53:31;6.45;;;3.13;;
43337;SDS011;28933;52.492;13.434;2023-04-30T04:55:57;9.25;;;3.67;;
43337;SDS011;28933;52.492;13.434;2023-04-30T04:58:23;8.70;;;3.70;;
43337;SDS011;28933;52.492;13.434;2023-04-30T05:00:48;6.15;;;3.45;;
43337;SDS011;28933;52.492;13.434;2023-04-30T05:03:14;5.97;;;2.78;;
43337;SDS011;28933;52.492;13.434;2023-04-30T05:05:39;4.97;;;3.33;;
43337;SDS011;28933;52.492;13.434;2023-04-30T05:08:05;13.00;;;3.50;;
43337;SDS011;28933;52.492;13.434;2023-04-30T05:10:31;7.18;;;2.80;;
43337;SDS011;28933;52.492;13.434;2023-04-30T05:12:56;6.63;;;2.92;;
43337;SDS011;28933;52.492;13.434;2023-04-30T05:15:22;8.35;;;3.10;;
43337;SDS011;28933;52.492;13.434;2023-04-30T05:17:48;7.10;;;3.50;;
43337;SDS011;28933;52.492;13.434;2023-04-30T05:20:13;5.55;;;3.25;;
43337;SDS011;28933;52.492;13.434;2023-04-30T05:22:39;6.32;;;3.03;;
43337;SDS011;28933;52.492;13.434;2023-04-30T05:25:05;11.18;;;3.38;;
43337;SDS011;28933;52.492;13.434;2023-04-30T05:27:31;6.15;;;2.67;;
43337;SDS011;28933;52.492;13.434;2023-04-30T05:29:56;6.60;;;3.15;;
43337;SDS011;28933;52.492;13.434;2023-04-30T05:32:22;5.70;;;3.13;;
43337;SDS011;28933;52.492;13.434;2023-04-30T05:34:47;5.03;;;2.88;;
43337;SDS011;28933;52.492;13.434;2023-04-30T05:37:13;7.53;;;3.97;;
43337;SDS011;28933;52.492;13.434;2023-04-30T05:39:40;8.85;;;2.85;;
43337;SDS011;28933;52.492;13.434;2023-04-30T05:42:06;7.53;;;3.35;;
43337;SDS011;28933;52.492;13.434;2023-04-30T05:44:32;9.07;;;3.13;;
43337;SDS011;28933;52.492;13.434;2023-04-30T05:46:57;7.35;;;3.95;;
43337;SDS011;28933;52.492;13.434;2023-04-30T05:49:23;11.85;;;3.33;;
43337;SDS011;28933;52.492;13.434;2023-04-30T05:51:49;8.05;;;3.35;;
43337;SDS011;28933;52.492;13.434;2023-04-30T05:54:14;9.80;;;3.85;;
43337;SDS011;28933;52.492;13.434;2023-04-30T05:56:40;8.23;;;3.78;;
43337;SDS011;28933;52.492;13.434;2023-04-30T05:59:06;6.38;;;2.90;;
43337;SDS011;28933;52.492;13.434;2023-04-30T06:01:31;7.18;;;3.38;;
43337;SDS011;28933;52.492;13.434;2023-04-30T06:03:57;12.07;;;3.45;;
43337;SDS011;28933;52.492;13.434;2023-04-30T06:06:25;5.05;;;2.88;;
43337;SDS011;28933;52.492;13.434;2023-04-30T06:08:52;7.80;;;3.63;;
43337;SDS011;28933;52.492;13.434;2023-04-30T06:11:17;7.60;;;3.13;;
43337;SDS011;28933;52.492;13.434;2023-04-30T06:13:45;11.80;;;3.20;;
43337;SDS011;28933;52.492;13.434;2023-04-30T06:16:12;9.05;;;3.50;;
43337;SDS011;28933;52.492;13.434;2023-04-30T06:18:38;9.93;;;3.78;;
43337;SDS011;28933;52.492;13.434;2023-04-30T06:21:03;7.25;;;3.40;;
43337;SDS011;28933;52.492;13.434;2023-04-30T06:23:29;9.73;;;3.60;;
43337;SDS011;28933;52.492;13.434;2023-04-30T06:25:54;8.65;;;3.85;;
43337;SDS011;28933;52.492;13.434;2023-04-30T06:28:20;6.05;;;2.83;;
43337;SDS011;28933;52.492;13.434;2023-04-30T06:30:46;7.45;;;3.22;;
43337;SDS011;28933;52.492;13.434;2023-04-30T06:33:11;6.93;;;4.00;;
43337;SDS011;28933;52.492;13.434;2023-04-30T06:35:37;7.20;;;3.55;;
43337;SDS011;28933;52.492;13.434;2023-04-30T06:38:04;7.50;;;4.13;;
43337;SDS011;28933;52.492;13.434;2023-04-30T06:40:30;8.60;;;3.88;;
43337;SDS011;28933;52.492;13.434;2023-04-30T06:42:55;8.63;;;3.85;;
43337;SDS011;28933;52.492;13.434;2023-04-30T06:45:21;10.30;;;4.05;;
43337;SDS011;28933;52.492;13.434;2023-04-30T06:47:46;17.17;;;4.53;;
43337;SDS011;28933;52.492;13.434;2023-04-30T06:50:12;9.60;;;4.22;;
43337;SDS011;28933;52.492;13.434;2023-04-30T06:52:39;8.50;;;3.78;;
43337;SDS011;28933;52.492;13.434;2023-04-30T06:55:05;10.60;;;3.22;;
43337;SDS011;28933;52.492;13.434;2023-04-30T06:57:31;7.72;;;3.47;;
43337;SDS011;28933;52.492;13.434;2023-04-30T06:59:57;10.90;;;3.90;;
43337;SDS011;28933;52.492;13.434;2023-04-30T07:02:23;8.05;;;3.17;;
43337;SDS011;28933;52.492;13.434;2023-04-30T07:04:49;8.50;;;3.78;;
43337;SDS011;28933;52.492;13.434;2023-04-30T07:07:15;9.07;;;3.70;;
43337;SDS011;28933;52.492;13.434;2023-04-30T07:09:40;11.00;;;4.45;;
43337;SDS011;28933;52.492;13.434;2023-04-30T07:12:06;9.77;;;3.47;;
43337;SDS011;28933;52.492;13.434;2023-04-30T07:14:31;9.25;;;3.50;;
43337;SDS011;28933;52.492;13.434;2023-04-30T07:16:57;6.53;;;3.13;;
43337;SDS011;28933;52.492;13.434;2023-04-30T07:19:23;9.20;;;4.05;;
43337;SDS011;28933;52.492;13.434;2023-04-30T07:21:50;8.88;;;3.70;;
43337;SDS011;28933;52.492;13.434;2023-04-30T07:24:16;7.38;;;3.55;;
43337;SDS011;28933;52.492;13.434;2023-04-30T07:26:42;7.43;;;3.17;;
43337;SDS011;28933;52.492;13.434;2023-04-30T07:29:07;9.25;;;3.55;;
43337;SDS011;28933;52.492;13.434;2023-04-30T07:31:33;6.82;;;3.53;;
43337;SDS011;28933;52.492;13.434;2023-04-30T07:33:58;7.30;;;4.40;;
43337;SDS011;28933;52.492;13.434;2023-04-30T07:36:24;10.27;;;3.47;;
43337;SDS011;28933;52.492;13.434;2023-04-30T07:38:51;7.90;;;3.90;;
43337;SDS011;28933;52.492;13.434;2023-04-30T07:41:17;9.45;;;3.47;;
43337;SDS011;28933;52.492;13.434;2023-04-30T07:43:43;6.68;;;3.17;;
43337;SDS011;28933;52.492;13.434;2023-04-30T07:46:08;7.65;;;3.30;;
43337;SDS011;28933;52.492;13.434;2023-04-30T07:48:34;4.80;;;2.80;;
43337;SDS011;28933;52.492;13.434;2023-04-30T07:51:00;7.38;;;3.20;;
43337;SDS011;28933;52.492;13.434;2023-04-30T07:53:26;8.00;;;3.03;;
43337;SDS011;28933;52.492;13.434;2023-04-30T07:55:51;8.95;;;3.22;;
43337;SDS011;28933;52.492;13.434;2023-04-30T07:58:17;8.48;;;3.10;;
43337;SDS011;28933;52.492;13.434;2023-04-30T08:00:43;10.95;;;3.33;;
43337;SDS011;28933;52.492;13.434;2023-04-30T08:03:08;8.90;;;3.78;;
43337;SDS011;28933;52.492;13.434;2023-04-30T08:05:34;6.10;;;3.33;;
43337;SDS011;28933;52.492;13.434;2023-04-30T08:07:59;5.57;;;2.30;;
43337;SDS011;28933;52.492;13.434;2023-04-30T08:10:25;6.38;;;2.78;;
43337;SDS011;28933;52.492;13.434;2023-04-30T08:12:51;6.88;;;2.60;;
43337;SDS011;28933;52.492;13.434;2023-04-30T08:15:19;7.18;;;3.38;;
43337;SDS011;28933;52.492;13.434;2023-04-30T08:17:48;8.05;;;2.67;;
43337;SDS011;28933;52.492;13.434;2023-04-30T08:20:15;6.82;;;3.05;;
43337;SDS011;28933;52.492;13.434;2023-04-30T08:22:41;5.50;;;2.67;;
43337;SDS011;28933;52.492;13.434;2023-04-30T08:25:11;4.93;;;2.00;;
43337;SDS011;28933;52.492;13.434;2023-04-30T08:27:37;6.57;;;2.58;;
43337;SDS011;28933;52.492;13.434;2023-04-30T08:30:03;4.57;;;2.63;;
43337;SDS011;28933;52.492;13.434;2023-04-30T08:32:32;7.72;;;3.63;;
43337;SDS011;28933;52.492;13.434;2023-04-30T08:34:59;12.63;;;3.17;;
43337;SDS011;28933;52.492;13.434;2023-04-30T08:37:25;6.53;;;3.05;;
43337;SDS011;28933;52.492;13.434;2023-04-30T08:39:50;7.85;;;3.28;;
43337;SDS011;28933;52.492;13.434;2023-04-30T08:42:16;7.47;;;2.65;;
43337;SDS011;28933;52.492;13.434;2023-04-30T08:44:45;6.85;;;3.15;;
43337;SDS011;28933;52.492;13.434;2023-04-30T08:47:12;7.43;;;2.95;;
43337;SDS011;28933;52.492;13.434;2023-04-30T08:49:39;7.05;;;3.63;;
43337;SDS011;28933;52.492;13.434;2023-04-30T08:52:05;6.07;;;2.97;;
43337;SDS011;28933;52.492;13.434;2023-04-30T08:54:32;5.47;;;2.67;;
43337;SDS011;28933;52.492;13.434;2023-04-30T08:57:00;10.07;;;2.58;;
43337;SDS011;28933;52.492;13.434;2023-04-30T08:59:26;7.18;;;2.95;;
43337;SDS011;28933;52.492;13.434;2023-04-30T09:01:52;5.50;;;2.47;;
43337;SDS011;28933;52.492;13.434;2023-04-30T09:04:18;6.72;;;2.40;;
43337;SDS011;28933;52.492;13.434;2023-04-30T09:06:43;6.78;;;3.10;;
43337;SDS011;28933;52.492;13.434;2023-04-30T09:09:12;7.75;;;3.28;;
43337;SDS011;28933;52.492;13.434;2023-04-30T09:11:39;5.63;;;3.17;;
43337;SDS011;28933;52.492;13.434;2023-04-30T09:14:06;5.75;;;2.60;;
43337;SDS011;28933;52.492;13.434;2023-04-30T09:19:21;6.47;;;3.38;;
43337;SDS011;28933;52.492;13.434;2023-04-30T09:21:48;6.63;;;2.55;;
43337;SDS011;28933;52.492;13.434;2023-04-30T09:24:14;8.00;;;2.95;;
43337;SDS011;28933;52.492;13.434;2023-04-30T09:26:40;4.30;;;2.00;;
43337;SDS011;28933;52.492;13.434;2023-04-30T09:29:07;4.78;;;2.33;;
43337;SDS011;28933;52.492;13.434;2023-04-30T09:31:34;4.82;;;2.45;;
43337;SDS011;28933;52.492;13.434;2023-04-30T09:34:01;11.05;;;2.67;;
43337;SDS011;28933;52.492;13.434;2023-04-30T09:36:27;4.70;;;2.35;;
43337;SDS011;28933;52.492;13.434;2023-04-30T09:38:53;6.43;;;2.33;;
43337;SDS011;28933;52.492;13.434;2023-04-30T09:41:24;4.22;;;2.40;;
43337;SDS011;28933;52.492;13.434;2023-04-30T09:43:51;5.20;;;2.65;;
43337;SDS011;28933;52.492;13.434;2023-04-30T09:46:21;5.53;;;2.40;;
43337;SDS011;28933;52.492;13.434;2023-04-30T09:48:58;6.00;;;2.70;;
43337;SDS011;28933;52.492;13.434;2023-04-30T09:51:25;3.90;;;2.42;;
43337;SDS011;28933;52.492;13.434;2023-04-30T09:53:51;6.15;;;2.20;;
43337;SDS011;28933;52.492;13.434;2023-04-30T09:56:19;6.97;;;2.45;;
43337;SDS011;28933;52.492;13.434;2023-04-30T09:58:50;2.60;;;1.73;;
43337;SDS011;28933;52.492;13.434;2023-04-30T10:01:18;3.88;;;2.00;;
43337;SDS011;28933;52.492;13.434;2023-04-30T10:03:45;3.78;;;1.92;;
43337;SDS011;28933;52.492;13.434;2023-04-30T10:06:12;4.25;;;2.05;;
43337;SDS011;28933;52.492;13.434;2023-04-30T10:08:40;3.33;;;1.90;;
43337;SDS011;28933;52.492;13.434;2023-04-30T10:11:08;3.05;;;2.03;;
43337;SDS011;28933;52.492;13.434;2023-04-30T10:16:56;3.20;;;1.77;;
43337;SDS011;28933;52.492;13.434;2023-04-30T10:19:15;4.88;;;2.22;;
43337;SDS011;28933;52.492;13.434;2023-04-30T10:21:54;4.85;;;2.47;;
43337;SDS011;28933;52.492;13.434;2023-04-30T10:24:23;3.67;;;2.17;;
43337;SDS011;28933;52.492;13.434;2023-04-30T10:26:49;3.47;;;2.22;;
43337;SDS011;28933;52.492;13.434;2023-04-30T10:29:15;4.78;;;2.20;;
43337;SDS011;28933;52.492;13.434;2023-04-30T10:31:43;5.93;;;2.38;;
43337;SDS011;28933;52.492;13.434;2023-04-30T10:37:03;3.47;;;1.90;;
43337;SDS011;28933;52.492;13.434;2023-04-30T10:39:39;4.10;;;2.60;;
43337;SDS011;28933;52.492;13.434;2023-04-30T10:42:05;3.63;;;2.00;;
43337;SDS011;28933;52.492;13.434;2023-04-30T10:44:37;3.28;;;1.80;;
43337;SDS011;28933;52.492;13.434;2023-04-30T10:47:03;5.68;;;2.30;;
43337;SDS011;28933;52.492;13.434;2023-04-30T10:49:30;6.03;;;2.55;;
43337;SDS011;28933;52.492;13.434;2023-04-30T10:52:00;6.32;;;2.40;;
43337;SDS011;28933;52.492;13.434;2023-04-30T10:54:28;3.42;;;1.90;;
43337;SDS011;28933;52.492;13.434;2023-04-30T10:57:08;6.60;;;1.85;;
43337;SDS011;28933;52.492;13.434;2023-04-30T10:59:36;4.32;;;2.00;;
43337;SDS011;28933;52.492;13.434;2023-04-30T11:02:02;3.47;;;1.88;;
43337;SDS011;28933;52.492;13.434;2023-04-30T11:04:28;4.35;;;2.42;;
43337;SDS011;28933;52.492;13.434;2023-04-30T11:07:15;3.70;;;2.00;;
43337;SDS011;28933;52.492;13.434;2023-04-30T11:09:43;5.72;;;2.08;;
43337;SDS011;28933;52.492;13.434;2023-04-30T11:12:18;5.93;;;2.22;;
43337;SDS011;28933;52.492;13.434;2023-04-30T11:14:52;5.95;;;2.53;;
43337;SDS011;28933;52.492;13.434;2023-04-30T11:17:23;4.05;;;2.20;;
43337;SDS011;28933;52.492;13.434;2023-04-30T11:19:51;3.72;;;1.90;;
43337;SDS011;28933;52.492;13.434;2023-04-30T11:22:19;2.80;;;1.92;;
43337;SDS011;28933;52.492;13.434;2023-04-30T11:25:07;4.70;;;2.10;;
43337;SDS011;28933;52.492;13.434;2023-04-30T11:27:34;4.72;;;2.05;;
43337;SDS011;28933;52.492;13.434;2023-04-30T11:30:03;3.80;;;2.05;;
43337;SDS011;28933;52.492;13.434;2023-04-30T11:32:36;5.35;;;1.73;;
43337;SDS011;28933;52.492;13.434;2023-04-30T11:35:03;4.80;;;2.00;;
43337;SDS011;28933;52.492;13.434;2023-04-30T11:37:30;6.15;;;2.22;;
43337;SDS011;28933;52.492;13.434;2023-04-30T11:40:05;4.03;;;1.83;;
43337;SDS011;28933;52.492;13.434;2023-04-30T11:42:32;4.50;;;1.52;;
43337;SDS011;28933;52.492;13.434;2023-04-30T11:45:15;4.05;;;1.45;;
43337;SDS011;28933;52.492;13.434;2023-04-30T11:50:08;6.13;;;2.15;;
43337;SDS011;28933;52.492;13.434;2023-04-30T11:52:35;5.57;;;2.50;;
43337;SDS011;28933;52.492;13.434;2023-04-30T11:55:11;4.18;;;1.95;;
43337;SDS011;28933;52.492;13.434;2023-04-30T11:57:43;3.72;;;1.98;;
43337;SDS011;28933;52.492;13.434;2023-04-30T12:00:11;7.20;;;2.03;;
43337;SDS011;28933;52.492;13.434;2023-04-30T12:02:42;3.60;;;2.22;;
43337;SDS011;28933;52.492;13.434;2023-04-30T12:05:22;3.85;;;2.08;;
43337;SDS011;28933;52.492;13.434;2023-04-30T12:07:50;3.90;;;2.30;;
43337;SDS011;28933;52.492;13.434;2023-04-30T12:10:18;6.88;;;2.22;;
43337;SDS011;28933;52.492;13.434;2023-04-30T12:12:45;4.82;;;2.40;;
43337;SDS011;28933;52.492;13.434;2023-04-30T12:15:19;4.90;;;1.85;;
43337;SDS011;28933;52.492;13.434;2023-04-30T12:17:57;5.35;;;2.40;;
43337;SDS011;28933;52.492;13.434;2023-04-30T12:20:26;3.45;;;1.90;;
43337;SDS011;28933;52.492;13.434;2023-04-30T12:22:55;6.28;;;2.13;;
43337;SDS011;28933;52.492;13.434;2023-04-30T12:25:22;3.53;;;1.83;;
43337;SDS011;28933;52.492;13.434;2023-04-30T12:27:49;4.03;;;1.67;;
43337;SDS011;28933;52.492;13.434;2023-04-30T12:30:18;3.00;;;2.13;;
43337;SDS011;28933;52.492;13.434;2023-04-30T12:32:47;4.47;;;2.33;;
43337;SDS011;28933;52.492;13.434;2023-04-30T12:35:14;4.50;;;2.33;;
43337;SDS011;28933;52.492;13.434;2023-04-30T12:37:46;6.70;;;2.03;;
43337;SDS011;28933;52.492;13.434;2023-04-30T12:40:14;3.53;;;2.03;;
43337;SDS011;28933;52.492;13.434;2023-04-30T12:42:41;7.07;;;2.50;;
43337;SDS011;28933;52.492;13.434;2023-04-30T12:45:07;3.42;;;2.22;;
43337;SDS011;28933;52.492;13.434;2023-04-30T12:47:38;5.65;;;2.75;;
43337;SDS011;28933;52.492;13.434;2023-04-30T12:50:13;4.50;;;2.30;;
43337;SDS011;28933;52.492;13.434;2023-04-30T12:52:39;5.93;;;2.30;;
43337;SDS011;28933;52.492;13.434;2023-04-30T12:55:18;5.32;;;2.28;;
43337;SDS011;28933;52.492;13.434;2023-04-30T13:00:43;3.75;;;1.95;;
43337;SDS011;28933;52.492;13.434;2023-04-30T13:03:14;6.55;;;2.17;;
43337;SDS011;28933;52.492;13.434;2023-04-30T13:05:40;3.95;;;2.22;;
43337;SDS011;28933;52.492;13.434;2023-04-30T13:08:12;4.88;;;2.20;;
43337;SDS011;28933;52.492;13.434;2023-04-30T13:10:38;6.57;;;2.38;;
43337;SDS011;28933;52.492;13.434;2023-04-30T13:13:03;3.88;;;2.08;;
43337;SDS011;28933;52.492;13.434;2023-04-30T13:15:29;4.38;;;2.65;;
43337;SDS011;28933;52.492;13.434;2023-04-30T13:21:17;4.60;;;2.05;;
43337;SDS011;28933;52.492;13.434;2023-04-30T13:23:42;3.20;;;2.28;;
43337;SDS011;28933;52.492;13.434;2023-04-30T13:26:08;5.50;;;2.40;;
43337;SDS011;28933;52.492;13.434;2023-04-30T13:28:33;6.13;;;2.47;;
43337;SDS011;28933;52.492;13.434;2023-04-30T13:30:59;5.25;;;2.70;;
43337;SDS011;28933;52.492;13.434;2023-04-30T13:33:24;4.85;;;2.47;;
43337;SDS011;28933;52.492;13.434;2023-04-30T13:35:50;4.55;;;2.10;;
43337;SDS011;28933;52.492;13.434;2023-04-30T13:38:16;5.80;;;2.30;;
43337;SDS011;28933;52.492;13.434;2023-04-30T13:40:41;3.80;;;2.20;;
43337;SDS011;28933;52.492;13.434;2023-04-30T13:43:07;4.65;;;2.10;;
43337;SDS011;28933;52.492;13.434;2023-04-30T13:45:33;4.32;;;2.20;;
43337;SDS011;28933;52.492;13.434;2023-04-30T13:47:58;3.67;;;2.03;;
43337;SDS011;28933;52.492;13.434;2023-04-30T13:50:25;6.40;;;2.90;;
43337;SDS011;28933;52.492;13.434;2023-04-30T13:52:51;3.97;;;2.10;;
43337;SDS011;28933;52.492;13.434;2023-04-30T13:55:16;4.00;;;2.08;;
43337;SDS011;28933;52.492;13.434;2023-04-30T13:57:42;4.38;;;2.03;;
43337;SDS011;28933;52.492;13.434;2023-04-30T14:00:07;3.83;;;2.20;;
43337;SDS011;28933;52.492;13.434;2023-04-30T14:02:34;3.90;;;1.90;;
43337;SDS011;28933;52.492;13.434;2023-04-30T14:04:59;6.30;;;2.40;;
43337;SDS011;28933;52.492;13.434;2023-04-30T14:07:27;5.53;;;2.22;;
43337;SDS011;28933;52.492;13.434;2023-04-30T14:09:53;4.35;;;2.08;;
43337;SDS011;28933;52.492;13.434;2023-04-30T14:12:18;7.00;;;2.55;;
43337;SDS011;28933;52.492;13.434;2023-04-30T14:14:45;5.78;;;2.25;;
43337;SDS011;28933;52.492;13.434;2023-04-30T14:17:11;3.85;;;1.90;;
43337;SDS011;28933;52.492;13.434;2023-04-30T14:19:37;4.43;;;2.33;;
43337;SDS011;28933;52.492;13.434;2023-04-30T14:22:02;5.82;;;2.42;;
43337;SDS011;28933;52.492;13.434;2023-04-30T14:24:28;5.10;;;2.17;;
43337;SDS011;28933;52.492;13.434;2023-04-30T14:26:53;5.07;;;2.35;;
43337;SDS011;28933;52.492;13.434;2023-04-30T14:29:19;3.92;;;2.15;;
43337;SDS011;28933;52.492;13.434;2023-04-30T14:31:45;2.50;;;1.48;;
43337;SDS011;28933;52.492;13.434;2023-04-30T14:34:10;5.05;;;2.47;;
43337;SDS011;28933;52.492;13.434;2023-04-30T14:36:37;3.00;;;2.08;;
43337;SDS011;28933;52.492;13.434;2023-04-30T14:39:03;6.63;;;2.22;;
43337;SDS011;28933;52.492;13.434;2023-04-30T14:41:32;3.28;;;1.80;;
43337;SDS011;28933;52.492;13.434;2023-04-30T14:44:01;4.43;;;1.95;;
43337;SDS011;28933;52.492;13.434;2023-04-30T14:46:27;4.35;;;2.17;;
43337;SDS011;28933;52.492;13.434;2023-04-30T14:48:53;4.00;;;2.17;;
43337;SDS011;28933;52.492;13.434;2023-04-30T14:51:18;5.15;;;2.58;;
43337;SDS011;28933;52.492;13.434;2023-04-30T14:53:44;4.13;;;2.42;;
43337;SDS011;28933;52.492;13.434;2023-04-30T14:56:10;4.28;;;1.80;;
43337;SDS011;28933;52.492;13.434;2023-04-30T14:58:35;4.43;;;1.73;;
43337;SDS011;28933;52.492;13.434;2023-04-30T15:01:02;3.85;;;2.17;;
43337;SDS011;28933;52.492;13.434;2023-04-30T15:03:27;5.25;;;1.95;;
43337;SDS011;28933;52.492;13.434;2023-04-30T15:05:53;4.70;;;2.28;;
43337;SDS011;28933;52.492;13.434;2023-04-30T15:08:19;3.47;;;1.92;;